Greenbrier Valley Airport Lewisburg US
ICAO: KLWB
IATA: LWB
Category: Medium
Scheduled Services: No

Elevation: 2302 ft
TransAlt. 18000 ft.

Airport Communications:
AWOS 3:121.4
CLNC DEL:120.85
WASHINGTON CNTR:134.4
CTAF:118.9
GND:121.9
LEWISBURG TWR:118.9
UNICOM:122.95

KLWB Zoom In..

If you have problems with the map follow the link
https://www.worldairports.se/pages/airport.php?
ICAO=KLWB

Runways:

(A) RW 04 length 7003 ft width 150 ft
ILS 110.35 / hdg 43

(B) RW 22 length 7003 ft width 150 ft
---- / hdg 223

Location; KLWB
Day. 14 / Time. 21.35 Zulu
* Altimeter: 30.18
* Temperature: 03° c. 37.4°f.
* Wind from: 040° Speed 04 kn.
Dewpoint: 02° c.
Visibility: 5 Statute Miles.
Clouds: Overcast 1200 ft.
Conditions: Drizzle.

KLWB 142135Z AUTO 04004KT 5SM DZ OVC012 03/02 A3018 RMK AO2 T00270021


Wind From 040°
Speed 04 kn.

 
 
jpsmedia.com for Web Design worldairports.se 2018   terms of use